sensor_id;sensor_type;location;lat;lon;timestamp;pressure;altitude;pressure_sealevel;temperature;humidity
64354;BME280;50681;53.334;-6.536;2023-08-17T00:02:11;101492.50;;;18.58;100.00
64354;BME280;50681;53.334;-6.536;2023-08-17T00:04:36;101483.47;;;18.49;100.00
64354;BME280;50681;53.334;-6.536;2023-08-17T00:07:03;101478.50;;;18.51;100.00
64354;BME280;50681;53.334;-6.536;2023-08-17T00:09:28;101482.03;;;18.34;100.00
64354;BME280;50681;53.334;-6.536;2023-08-17T00:11:54;101491.84;;;18.35;100.00
64354;BME280;50681;53.334;-6.536;2023-08-17T00:14:19;101481.53;;;18.32;100.00
64354;BME280;50681;53.334;-6.536;2023-08-17T00:16:45;101482.81;;;18.34;100.00
64354;BME280;50681;53.334;-6.536;2023-08-17T00:19:10;101476.56;;;18.34;100.00
64354;BME280;50681;53.334;-6.536;2023-08-17T00:21:36;101482.97;;;18.29;100.00
64354;BME280;50681;53.334;-6.536;2023-08-17T00:24:17;101478.16;;;18.35;100.00
64354;BME280;50681;53.334;-6.536;2023-08-17T00:26:43;101479.91;;;18.22;100.00
64354;BME280;50681;53.334;-6.536;2023-08-17T00:29:08;101481.16;;;18.16;100.00
64354;BME280;50681;53.334;-6.536;2023-08-17T00:31:34;101470.09;;;18.21;100.00
64354;BME280;50681;53.334;-6.536;2023-08-17T00:33:59;101470.72;;;18.18;100.00
64354;BME280;50681;53.334;-6.536;2023-08-17T00:36:24;101477.31;;;18.17;100.00
64354;BME280;50681;53.334;-6.536;2023-08-17T00:38:50;101473.00;;;18.77;100.00
64354;BME280;50681;53.334;-6.536;2023-08-17T00:41:15;101458.34;;;18.12;100.00
64354;BME280;50681;53.334;-6.536;2023-08-17T00:43:41;101461.06;;;18.12;100.00
64354;BME280;50681;53.334;-6.536;2023-08-17T00:46:07;101466.38;;;18.08;100.00
64354;BME280;50681;53.334;-6.536;2023-08-17T00:48:33;101459.47;;;18.19;100.00
64354;BME280;50681;53.334;-6.536;2023-08-17T00:50:59;101468.16;;;18.21;100.00
64354;BME280;50681;53.334;-6.536;2023-08-17T00:53:27;101456.44;;;18.30;100.00
64354;BME280;50681;53.334;-6.536;2023-08-17T00:55:54;101457.41;;;18.87;100.00
64354;BME280;50681;53.334;-6.536;2023-08-17T00:58:21;101459.16;;;18.21;100.00
64354;BME280;50681;53.334;-6.536;2023-08-17T01:00:47;101458.19;;;18.08;100.00
64354;BME280;50681;53.334;-6.536;2023-08-17T01:03:12;101454.78;;;18.02;100.00
64354;BME280;50681;53.334;-6.536;2023-08-17T01:05:38;101459.94;;;18.04;100.00
64354;BME280;50681;53.334;-6.536;2023-08-17T01:08:04;101452.91;;;18.20;100.00
64354;BME280;50681;53.334;-6.536;2023-08-17T01:13:27;101437.44;;;18.16;100.00
64354;BME280;50681;53.334;-6.536;2023-08-17T01:15:58;101447.72;;;18.10;100.00
64354;BME280;50681;53.334;-6.536;2023-08-17T01:18:29;101439.84;;;18.09;100.00
64354;BME280;50681;53.334;-6.536;2023-08-17T01:20:58;101442.06;;;17.98;100.00
64354;BME280;50681;53.334;-6.536;2023-08-17T01:23:25;101438.81;;;17.96;100.00
64354;BME280;50681;53.334;-6.536;2023-08-17T01:25:50;101439.28;;;17.89;100.00
64354;BME280;50681;53.334;-6.536;2023-08-17T01:28:16;101437.03;;;17.91;100.00
64354;BME280;50681;53.334;-6.536;2023-08-17T01:30:58;101433.25;;;18.10;100.00
64354;BME280;50681;53.334;-6.536;2023-08-17T01:33:56;101429.41;;;18.11;100.00
64354;BME280;50681;53.334;-6.536;2023-08-17T01:36:26;101419.28;;;18.11;100.00
64354;BME280;50681;53.334;-6.536;2023-08-17T01:38:53;101429.53;;;18.05;100.00
64354;BME280;50681;53.334;-6.536;2023-08-17T01:41:22;101419.09;;;18.07;100.00
64354;BME280;50681;53.334;-6.536;2023-08-17T01:43:48;101425.31;;;17.90;100.00
64354;BME280;50681;53.334;-6.536;2023-08-17T01:46:16;101421.91;;;17.85;100.00
64354;BME280;50681;53.334;-6.536;2023-08-17T01:48:46;101430.78;;;17.99;100.00
64354;BME280;50681;53.334;-6.536;2023-08-17T01:51:17;101430.63;;;17.96;100.00
64354;BME280;50681;53.334;-6.536;2023-08-17T01:53:45;101422.69;;;17.76;100.00
64354;BME280;50681;53.334;-6.536;2023-08-17T01:56:11;101423.03;;;17.75;100.00
64354;BME280;50681;53.334;-6.536;2023-08-17T01:58:36;101424.84;;;17.88;100.00
64354;BME280;50681;53.334;-6.536;2023-08-17T02:01:02;101428.66;;;17.78;100.00
64354;BME280;50681;53.334;-6.536;2023-08-17T02:03:31;101426.09;;;17.91;100.00
64354;BME280;50681;53.334;-6.536;2023-08-17T02:05:57;101419.31;;;17.80;100.00
64354;BME280;50681;53.334;-6.536;2023-08-17T02:08:22;101417.41;;;17.80;100.00
64354;BME280;50681;53.334;-6.536;2023-08-17T02:10:48;101436.28;;;17.59;100.00
64354;BME280;50681;53.334;-6.536;2023-08-17T02:13:14;101424.94;;;17.74;100.00
64354;BME280;50681;53.334;-6.536;2023-08-17T02:15:40;101420.09;;;17.71;100.00
64354;BME280;50681;53.334;-6.536;2023-08-17T02:18:06;101415.81;;;17.79;100.00
64354;BME280;50681;53.334;-6.536;2023-08-17T02:20:31;101419.31;;;17.80;100.00
64354;BME280;50681;53.334;-6.536;2023-08-17T02:22:57;101412.41;;;17.73;100.00
64354;BME280;50681;53.334;-6.536;2023-08-17T02:25:22;101419.81;;;17.73;100.00
64354;BME280;50681;53.334;-6.536;2023-08-17T02:27:48;101412.72;;;17.72;100.00
64354;BME280;50681;53.334;-6.536;2023-08-17T02:30:13;101410.81;;;17.81;100.00
64354;BME280;50681;53.334;-6.536;2023-08-17T02:32:39;101409.47;;;17.61;100.00
64354;BME280;50681;53.334;-6.536;2023-08-17T02:35:05;101401.28;;;17.61;100.00
64354;BME280;50681;53.334;-6.536;2023-08-17T02:37:30;101404.19;;;17.65;100.00
64354;BME280;50681;53.334;-6.536;2023-08-17T02:39:56;101408.53;;;17.74;100.00
64354;BME280;50681;53.334;-6.536;2023-08-17T02:42:22;101398.44;;;17.84;100.00
64354;BME280;50681;53.334;-6.536;2023-08-17T02:44:48;101410.94;;;17.67;100.00
64354;BME280;50681;53.334;-6.536;2023-08-17T02:47:13;101412.06;;;17.66;100.00
64354;BME280;50681;53.334;-6.536;2023-08-17T02:49:39;101401.94;;;17.67;100.00
64354;BME280;50681;53.334;-6.536;2023-08-17T02:52:04;101403.88;;;17.66;100.00
64354;BME280;50681;53.334;-6.536;2023-08-17T02:54:30;101404.34;;;17.68;100.00
64354;BME280;50681;53.334;-6.536;2023-08-17T02:56:57;101397.44;;;17.62;100.00
64354;BME280;50681;53.334;-6.536;2023-08-17T02:59:22;101407.38;;;17.58;100.00
64354;BME280;50681;53.334;-6.536;2023-08-17T03:01:48;101396.44;;;17.58;100.00
64354;BME280;50681;53.334;-6.536;2023-08-17T03:04:13;101397.06;;;17.55;100.00
64354;BME280;50681;53.334;-6.536;2023-08-17T03:06:39;101400.44;;;17.52;100.00
64354;BME280;50681;53.334;-6.536;2023-08-17T03:09:04;101387.41;;;17.48;100.00
64354;BME280;50681;53.334;-6.536;2023-08-17T03:11:30;101393.50;;;17.45;100.00
64354;BME280;50681;53.334;-6.536;2023-08-17T03:13:55;101391.75;;;17.41;100.00
64354;BME280;50681;53.334;-6.536;2023-08-17T03:16:25;101381.81;;;17.45;100.00
64354;BME280;50681;53.334;-6.536;2023-08-17T03:18:52;101378.88;;;17.41;100.00
64354;BME280;50681;53.334;-6.536;2023-08-17T03:21:17;101378.59;;;17.43;100.00
64354;BME280;50681;53.334;-6.536;2023-08-17T03:23:43;101367.47;;;17.39;100.00
64354;BME280;50681;53.334;-6.536;2023-08-17T03:26:09;101367.00;;;17.37;100.00
64354;BME280;50681;53.334;-6.536;2023-08-17T03:28:35;101364.78;;;17.48;100.00
64354;BME280;50681;53.334;-6.536;2023-08-17T03:31:01;101359.50;;;17.52;100.00
64354;BME280;50681;53.334;-6.536;2023-08-17T03:33:28;101365.06;;;17.38;100.00
64354;BME280;50681;53.334;-6.536;2023-08-17T03:35:53;101362.00;;;17.39;100.00
64354;BME280;50681;53.334;-6.536;2023-08-17T03:38:19;101350.13;;;17.35;100.00
64354;BME280;50681;53.334;-6.536;2023-08-17T03:40:44;101345.78;;;17.34;100.00
64354;BME280;50681;53.334;-6.536;2023-08-17T03:43:11;101354.00;;;17.43;100.00
64354;BME280;50681;53.334;-6.536;2023-08-17T03:45:36;101356.41;;;17.44;100.00
64354;BME280;50681;53.334;-6.536;2023-08-17T03:48:02;101355.47;;;17.49;100.00
64354;BME280;50681;53.334;-6.536;2023-08-17T03:50:28;101372.16;;;17.47;100.00
64354;BME280;50681;53.334;-6.536;2023-08-17T03:52:53;101372.69;;;17.58;100.00
64354;BME280;50681;53.334;-6.536;2023-08-17T03:55:19;101355.28;;;17.45;100.00
64354;BME280;50681;53.334;-6.536;2023-08-17T03:57:44;101359.78;;;17.41;100.00
64354;BME280;50681;53.334;-6.536;2023-08-17T04:00:13;101357.59;;;17.61;100.00
64354;BME280;50681;53.334;-6.536;2023-08-17T04:02:39;101363.19;;;17.47;100.00
64354;BME280;50681;53.334;-6.536;2023-08-17T04:05:05;101356.41;;;17.44;100.00
64354;BME280;50681;53.334;-6.536;2023-08-17T04:07:30;101350.47;;;17.42;100.00
64354;BME280;50681;53.334;-6.536;2023-08-17T04:09:56;101358.34;;;17.44;100.00
64354;BME280;50681;53.334;-6.536;2023-08-17T04:12:21;101356.41;;;17.44;100.00
64354;BME280;50681;53.334;-6.536;2023-08-17T04:14:49;101350.78;;;17.41;100.00
64354;BME280;50681;53.334;-6.536;2023-08-17T04:17:15;101365.22;;;17.41;100.00
64354;BME280;50681;53.334;-6.536;2023-08-17T04:19:40;101363.00;;;17.43;100.00
64354;BME280;50681;53.334;-6.536;2023-08-17T04:22:06;101357.03;;;17.32;100.00
64354;BME280;50681;53.334;-6.536;2023-08-17T04:24:31;101344.22;;;17.42;100.00
64354;BME280;50681;53.334;-6.536;2023-08-17T04:26:57;101347.25;;;17.40;100.00
64354;BME280;50681;53.334;-6.536;2023-08-17T04:29:22;101350.16;;;17.44;100.00
64354;BME280;50681;53.334;-6.536;2023-08-17T04:31:48;101341.16;;;17.43;100.00
64354;BME280;50681;53.334;-6.536;2023-08-17T04:34:13;101345.63;;;17.39;100.00
64354;BME280;50681;53.334;-6.536;2023-08-17T04:36:39;101342.28;;;17.42;100.00
64354;BME280;50681;53.334;-6.536;2023-08-17T04:39:04;101337.44;;;17.39;100.00
64354;BME280;50681;53.334;-6.536;2023-08-17T04:41:30;101331.34;;;17.42;100.00
64354;BME280;50681;53.334;-6.536;2023-08-17T04:43:56;101323.00;;;17.39;100.00
64354;BME280;50681;53.334;-6.536;2023-08-17T04:46:21;101316.38;;;17.31;100.00
64354;BME280;50681;53.334;-6.536;2023-08-17T04:48:47;101318.34;;;17.39;100.00
64354;BME280;50681;53.334;-6.536;2023-08-17T04:51:13;101323.16;;;17.42;100.00
64354;BME280;50681;53.334;-6.536;2023-08-17T04:53:40;101321.41;;;17.38;100.00
64354;BME280;50681;53.334;-6.536;2023-08-17T04:56:05;101312.88;;;17.39;100.00
64354;BME280;50681;53.334;-6.536;2023-08-17T04:58:31;101313.41;;;17.50;100.00
64354;BME280;50681;53.334;-6.536;2023-08-17T05:00:58;101309.56;;;17.51;100.00
64354;BME280;50681;53.334;-6.536;2023-08-17T05:03:24;101313.56;;;17.54;100.00
64354;BME280;50681;53.334;-6.536;2023-08-17T05:05:53;101302.66;;;17.71;100.00
64354;BME280;50681;53.334;-6.536;2023-08-17T05:08:19;101306.19;;;17.54;100.00
64354;BME280;50681;53.334;-6.536;2023-08-17T05:10:46;101303.16;;;17.65;100.00
64354;BME280;50681;53.334;-6.536;2023-08-17T05:13:12;101293.66;;;17.62;100.00
64354;BME280;50681;53.334;-6.536;2023-08-17T05:15:37;101295.25;;;17.63;100.00
64354;BME280;50681;53.334;-6.536;2023-08-17T05:18:03;101294.81;;;17.70;100.00
64354;BME280;50681;53.334;-6.536;2023-08-17T05:20:29;101291.25;;;17.69;100.00
64354;BME280;50681;53.334;-6.536;2023-08-17T05:22:54;101300.13;;;17.75;100.00
64354;BME280;50681;53.334;-6.536;2023-08-17T05:25:19;101303.81;;;17.79;100.00
64354;BME280;50681;53.334;-6.536;2023-08-17T05:27:45;101304.75;;;17.74;100.00
64354;BME280;50681;53.334;-6.536;2023-08-17T05:30:11;101305.25;;;17.76;100.00
64354;BME280;50681;53.334;-6.536;2023-08-17T05:32:37;101303.97;;;17.83;100.00
64354;BME280;50681;53.334;-6.536;2023-08-17T05:35:02;101293.03;;;17.83;100.00
64354;BME280;50681;53.334;-6.536;2023-08-17T05:37:28;101292.25;;;17.82;100.00
64354;BME280;50681;53.334;-6.536;2023-08-17T05:39:53;101295.47;;;17.84;100.00
64354;BME280;50681;53.334;-6.536;2023-08-17T05:42:20;101289.84;;;18.16;100.00
64354;BME280;50681;53.334;-6.536;2023-08-17T05:44:46;101298.34;;;17.88;100.00
64354;BME280;50681;53.334;-6.536;2023-08-17T05:47:12;101282.16;;;18.00;100.00
64354;BME280;50681;53.334;-6.536;2023-08-17T05:49:40;101282.97;;;18.01;100.00
64354;BME280;50681;53.334;-6.536;2023-08-17T05:52:07;101288.22;;;17.97;100.00
64354;BME280;50681;53.334;-6.536;2023-08-17T05:54:32;101281.81;;;18.11;100.00
64354;BME280;50681;53.334;-6.536;2023-08-17T05:56:58;101282.78;;;18.15;100.00
64354;BME280;50681;53.334;-6.536;2023-08-17T05:59:23;101285.81;;;18.22;100.00
64354;BME280;50681;53.334;-6.536;2023-08-17T06:01:50;101283.91;;;18.14;100.00
64354;BME280;50681;53.334;-6.536;2023-08-17T06:04:15;101285.00;;;18.30;100.00
64354;BME280;50681;53.334;-6.536;2023-08-17T06:06:41;101287.09;;;18.42;100.00
64354;BME280;50681;53.334;-6.536;2023-08-17T06:09:07;101280.16;;;18.45;100.00
64354;BME280;50681;53.334;-6.536;2023-08-17T06:11:34;101273.75;;;18.49;100.00
64354;BME280;50681;53.334;-6.536;2023-08-17T06:13:59;101276.94;;;18.51;100.00
64354;BME280;50681;53.334;-6.536;2023-08-17T06:16:24;101273.88;;;18.53;100.00
64354;BME280;50681;53.334;-6.536;2023-08-17T06:18:50;101268.81;;;18.73;100.00
64354;BME280;50681;53.334;-6.536;2023-08-17T06:21:15;101259.91;;;18.85;100.00
64354;BME280;50681;53.334;-6.536;2023-08-17T06:23:41;101275.38;;;18.80;100.00
64354;BME280;50681;53.334;-6.536;2023-08-17T06:26:06;101268.09;;;19.02;100.00
64354;BME280;50681;53.334;-6.536;2023-08-17T06:28:33;101270.97;;;19.06;100.00
64354;BME280;50681;53.334;-6.536;2023-08-17T06:31:00;101269.97;;;19.10;100.00
64354;BME280;50681;53.334;-6.536;2023-08-17T06:33:25;101268.25;;;19.06;100.00
64354;BME280;50681;53.334;-6.536;2023-08-17T06:35:51;101267.00;;;19.24;100.00
64354;BME280;50681;53.334;-6.536;2023-08-17T06:38:16;101258.13;;;19.28;100.00
64354;BME280;50681;53.334;-6.536;2023-08-17T06:40:42;101252.97;;;19.26;100.00
64354;BME280;50681;53.334;-6.536;2023-08-17T06:43:08;101252.88;;;19.44;100.00
64354;BME280;50681;53.334;-6.536;2023-08-17T06:45:34;101250.34;;;19.60;100.00
64354;BME280;50681;53.334;-6.536;2023-08-17T06:47:59;101255.69;;;19.56;100.00
64354;BME280;50681;53.334;-6.536;2023-08-17T06:50:25;101257.28;;;19.57;100.00
64354;BME280;50681;53.334;-6.536;2023-08-17T06:52:51;101266.88;;;19.93;100.00
64354;BME280;50681;53.334;-6.536;2023-08-17T06:55:17;101261.44;;;19.85;100.00
64354;BME280;50681;53.334;-6.536;2023-08-17T06:57:43;101261.56;;;19.88;100.00
64354;BME280;50681;53.334;-6.536;2023-08-17T07:00:09;101248.28;;;19.99;100.00
64354;BME280;50681;53.334;-6.536;2023-08-17T07:02:36;101261.59;;;20.09;100.00
64354;BME280;50681;53.334;-6.536;2023-08-17T07:05:02;101247.91;;;20.22;100.00
64354;BME280;50681;53.334;-6.536;2023-08-17T07:07:30;101236.66;;;20.61;100.00
64354;BME280;50681;53.334;-6.536;2023-08-17T07:09:59;101242.22;;;20.85;100.00
64354;BME280;50681;53.334;-6.536;2023-08-17T07:12:25;101234.50;;;20.54;100.00
64354;BME280;50681;53.334;-6.536;2023-08-17T07:14:50;101238.63;;;20.48;100.00
64354;BME280;50681;53.334;-6.536;2023-08-17T07:17:16;101234.31;;;20.25;100.00
64354;BME280;50681;53.334;-6.536;2023-08-17T07:19:43;101241.59;;;20.67;100.00
64354;BME280;50681;53.334;-6.536;2023-08-17T07:22:08;101232.72;;;20.83;100.00
64354;BME280;50681;53.334;-6.536;2023-08-17T07:24:33;101228.13;;;20.75;100.00
64354;BME280;50681;53.334;-6.536;2023-08-17T07:26:59;101232.97;;;20.78;100.00
64354;BME280;50681;53.334;-6.536;2023-08-17T07:29:24;101238.69;;;20.85;100.00
64354;BME280;50681;53.334;-6.536;2023-08-17T07:31:50;101221.69;;;21.33;100.00
64354;BME280;50681;53.334;-6.536;2023-08-17T07:34:17;101225.75;;;20.98;100.00
64354;BME280;50681;53.334;-6.536;2023-08-17T07:36:43;101221.75;;;21.08;100.00
64354;BME280;50681;53.334;-6.536;2023-08-17T07:39:10;101224.91;;;21.22;100.00
64354;BME280;50681;53.334;-6.536;2023-08-17T07:41:35;101223.44;;;21.12;100.00
64354;BME280;50681;53.334;-6.536;2023-08-17T07:44:02;101215.22;;;21.53;100.00
64354;BME280;50681;53.334;-6.536;2023-08-17T07:46:28;101216.88;;;21.29;100.00
64354;BME280;50681;53.334;-6.536;2023-08-17T07:48:53;101214.97;;;21.18;100.00
64354;BME280;50681;53.334;-6.536;2023-08-17T07:51:19;101200.16;;;21.35;100.00
64354;BME280;50681;53.334;-6.536;2023-08-17T07:53:45;101206.22;;;21.40;100.00
64354;BME280;50681;53.334;-6.536;2023-08-17T07:56:10;101212.81;;;21.11;100.00
64354;BME280;50681;53.334;-6.536;2023-08-17T07:58:36;101203.75;;;21.64;100.00
64354;BME280;50681;53.334;-6.536;2023-08-17T08:03:27;101197.53;;;21.79;100.00
64354;BME280;50681;53.334;-6.536;2023-08-17T08:05:53;101200.97;;;21.76;100.00
64354;BME280;50681;53.334;-6.536;2023-08-17T08:08:20;101192.91;;;22.28;100.00
64354;BME280;50681;53.334;-6.536;2023-08-17T08:10:45;101203.72;;;21.76;100.00
64354;BME280;50681;53.334;-6.536;2023-08-17T08:13:12;101200.28;;;21.79;100.00
64354;BME280;50681;53.334;-6.536;2023-08-17T08:15:38;101195.72;;;21.71;100.00
64354;BME280;50681;53.334;-6.536;2023-08-17T08:18:04;101193.94;;;21.91;100.00
64354;BME280;50681;53.334;-6.536;2023-08-17T08:20:29;101189.78;;;21.56;100.00
64354;BME280;50681;53.334;-6.536;2023-08-17T08:22:55;101176.63;;;21.62;100.00
64354;BME280;50681;53.334;-6.536;2023-08-17T08:25:20;101172.06;;;21.82;100.00
64354;BME280;50681;53.334;-6.536;2023-08-17T08:27:46;101182.13;;;21.91;100.00
64354;BME280;50681;53.334;-6.536;2023-08-17T08:30:27;101186.31;;;22.16;100.00
64354;BME280;50681;53.334;-6.536;2023-08-17T08:32:52;101174.72;;;22.23;100.00
64354;BME280;50681;53.334;-6.536;2023-08-17T08:35:20;101171.88;;;22.20;100.00
64354;BME280;50681;53.334;-6.536;2023-08-17T08:37:47;101187.53;;;22.48;100.00
64354;BME280;50681;53.334;-6.536;2023-08-17T08:40:14;101172.22;;;23.18;100.00
64354;BME280;50681;53.334;-6.536;2023-08-17T08:42:46;101164.91;;;22.54;100.00
64354;BME280;50681;53.334;-6.536;2023-08-17T08:45:12;101173.84;;;22.67;100.00
64354;BME280;50681;53.334;-6.536;2023-08-17T08:47:38;101167.00;;;22.77;100.00
64354;BME280;50681;53.334;-6.536;2023-08-17T08:50:05;101162.63;;;23.47;100.00
64354;BME280;50681;53.334;-6.536;2023-08-17T08:52:35;101168.88;;;23.09;100.00
64354;BME280;50681;53.334;-6.536;2023-08-17T08:55:21;101166.50;;;23.07;100.00
64354;BME280;50681;53.334;-6.536;2023-08-17T08:57:49;101164.81;;;23.22;100.00
64354;BME280;50681;53.334;-6.536;2023-08-17T09:00:16;101169.19;;;23.23;100.00
64354;BME280;50681;53.334;-6.536;2023-08-17T09:02:42;101167.56;;;23.38;100.00
64354;BME280;50681;53.334;-6.536;2023-08-17T09:05:09;101165.97;;;23.57;100.00
64354;BME280;50681;53.334;-6.536;2023-08-17T09:07:37;101165.25;;;23.60;100.00
64354;BME280;50681;53.334;-6.536;2023-08-17T09:10:02;101173.28;;;23.49;100.00
64354;BME280;50681;53.334;-6.536;2023-08-17T09:12:31;101168.00;;;23.40;100.00
64354;BME280;50681;53.334;-6.536;2023-08-17T09:14:57;101165.72;;;23.46;100.00
64354;BME280;50681;53.334;-6.536;2023-08-17T09:17:23;101161.34;;;23.84;100.00
64354;BME280;50681;53.334;-6.536;2023-08-17T09:19:50;101157.03;;;23.63;100.00
64354;BME280;50681;53.334;-6.536;2023-08-17T09:22:22;101151.47;;;23.83;100.00
64354;BME280;50681;53.334;-6.536;2023-08-17T09:24:48;101137.13;;;23.74;100.00
64354;BME280;50681;53.334;-6.536;2023-08-17T09:27:20;101143.94;;;23.80;100.00
64354;BME280;50681;53.334;-6.536;2023-08-17T09:29:45;101145.38;;;23.93;100.00
64354;BME280;50681;53.334;-6.536;2023-08-17T09:32:13;101135.34;;;24.05;100.00
64354;BME280;50681;53.334;-6.536;2023-08-17T09:34:42;101143.63;;;24.05;100.00
64354;BME280;50681;53.334;-6.536;2023-08-17T09:37:08;101139.69;;;24.06;100.00
64354;BME280;50681;53.334;-6.536;2023-08-17T09:39:33;101140.13;;;24.08;100.00
64354;BME280;50681;53.334;-6.536;2023-08-17T09:42:02;101134.78;;;24.19;100.00
64354;BME280;50681;53.334;-6.536;2023-08-17T09:44:27;101132.72;;;24.12;100.00
64354;BME280;50681;53.334;-6.536;2023-08-17T09:46:56;101135.06;;;24.37;100.00
64354;BME280;50681;53.334;-6.536;2023-08-17T09:49:23;101132.63;;;24.32;100.00
64354;BME280;50681;53.334;-6.536;2023-08-17T09:51:50;101134.41;;;24.20;100.00
64354;BME280;50681;53.334;-6.536;2023-08-17T09:54:22;101132.75;;;24.39;100.00
64354;BME280;50681;53.334;-6.536;2023-08-17T09:56:54;101142.31;;;24.45;100.00
64354;BME280;50681;53.334;-6.536;2023-08-17T09:59:20;101130.84;;;24.70;100.00
64354;BME280;50681;53.334;-6.536;2023-08-17T10:01:50;101134.94;;;24.80;100.00
64354;BME280;50681;53.334;-6.536;2023-08-17T10:04:20;101133.59;;;24.70;100.00
64354;BME280;50681;53.334;-6.536;2023-08-17T10:06:48;101128.03;;;24.93;100.00
64354;BME280;50681;53.334;-6.536;2023-08-17T10:09:17;101125.75;;;24.99;100.00
64354;BME280;50681;53.334;-6.536;2023-08-17T10:11:45;101121.09;;;25.07;100.00
64354;BME280;50681;53.334;-6.536;2023-08-17T10:14:20;101115.38;;;25.23;100.00
64354;BME280;50681;53.334;-6.536;2023-08-17T10:16:51;101110.97;;;25.18;100.00
64354;BME280;50681;53.334;-6.536;2023-08-17T10:19:43;101103.16;;;25.24;100.00
64354;BME280;50681;53.334;-6.536;2023-08-17T10:22:21;101102.84;;;25.33;100.00
64354;BME280;50681;53.334;-6.536;2023-08-17T10:24:49;101107.66;;;25.05;100.00
64354;BME280;50681;53.334;-6.536;2023-08-17T10:27:16;101106.00;;;25.31;100.00
64354;BME280;50681;53.334;-6.536;2023-08-17T10:29:43;101114.28;;;25.31;100.00
64354;BME280;50681;53.334;-6.536;2023-08-17T10:32:09;101112.22;;;25.24;100.00
64354;BME280;50681;53.334;-6.536;2023-08-17T10:34:36;101115.88;;;24.98;100.00
64354;BME280;50681;53.334;-6.536;2023-08-17T10:37:02;101123.59;;;25.16;100.00
64354;BME280;50681;53.334;-6.536;2023-08-17T10:39:28;101101.41;;;25.12;100.00
64354;BME280;50681;53.334;-6.536;2023-08-17T10:41:56;101102.06;;;25.32;100.00
64354;BME280;50681;53.334;-6.536;2023-08-17T10:44:43;101117.13;;;25.73;100.00
64354;BME280;50681;53.334;-6.536;2023-08-17T10:47:25;101100.44;;;26.07;100.00
64354;BME280;50681;53.334;-6.536;2023-08-17T10:49:52;101099.91;;;25.90;100.00
64354;BME280;50681;53.334;-6.536;2023-08-17T10:52:36;101093.72;;;26.08;100.00
64354;BME280;50681;53.334;-6.536;2023-08-17T10:55:07;101095.69;;;26.07;100.00
64354;BME280;50681;53.334;-6.536;2023-08-17T10:57:38;101098.84;;;26.06;100.00
64354;BME280;50681;53.334;-6.536;2023-08-17T11:00:19;101093.88;;;26.22;100.00
64354;BME280;50681;53.334;-6.536;2023-08-17T11:03:17;101088.41;;;26.33;100.00
64354;BME280;50681;53.334;-6.536;2023-08-17T11:05:47;101079.44;;;26.58;100.00
64354;BME280;50681;53.334;-6.536;2023-08-17T11:11:13;101077.41;;;26.44;100.00
64354;BME280;50681;53.334;-6.536;2023-08-17T11:13:41;101090.44;;;26.44;100.00
64354;BME280;50681;53.334;-6.536;2023-08-17T11:16:08;101077.81;;;26.46;100.00
64354;BME280;50681;53.334;-6.536;2023-08-17T11:18:34;101077.00;;;26.42;100.00
64354;BME280;50681;53.334;-6.536;2023-08-17T11:21:04;101078.19;;;26.41;100.00
64354;BME280;50681;53.334;-6.536;2023-08-17T11:23:31;101086.13;;;26.46;100.00
64354;BME280;50681;53.334;-6.536;2023-08-17T11:25:57;101075.81;;;26.47;100.00
64354;BME280;50681;53.334;-6.536;2023-08-17T11:28:24;101082.25;;;26.65;100.00
64354;BME280;50681;53.334;-6.536;2023-08-17T11:30:57;101071.53;;;26.60;100.00
64354;BME280;50681;53.334;-6.536;2023-08-17T11:33:28;101070.38;;;26.65;100.00
64354;BME280;50681;53.334;-6.536;2023-08-17T11:35:58;101082.25;;;26.65;100.00
64354;BME280;50681;53.334;-6.536;2023-08-17T11:38:40;101077.53;;;26.69;100.00
64354;BME280;50681;53.334;-6.536;2023-08-17T11:41:07;101084.03;;;27.03;100.00
64354;BME280;50681;53.334;-6.536;2023-08-17T11:43:35;101082.50;;;27.16;100.00
64354;BME280;50681;53.334;-6.536;2023-08-17T11:46:01;101071.38;;;27.05;100.00
64354;BME280;50681;53.334;-6.536;2023-08-17T11:48:28;101065.00;;;27.01;100.00
64354;BME280;50681;53.334;-6.536;2023-08-17T11:50:54;101065.00;;;26.94;100.00
64354;BME280;50681;53.334;-6.536;2023-08-17T11:53:20;101065.81;;;27.02;100.00
64354;BME280;50681;53.334;-6.536;2023-08-17T11:55:46;101068.63;;;27.20;100.00
64354;BME280;50681;53.334;-6.536;2023-08-17T11:58:12;101069.03;;;27.11;100.00
64354;BME280;50681;53.334;-6.536;2023-08-17T12:00:41;101072.16;;;27.09;100.00
64354;BME280;50681;53.334;-6.536;2023-08-17T12:03:13;101068.22;;;27.10;100.00
64354;BME280;50681;53.334;-6.536;2023-08-17T12:05:38;101073.72;;;26.96;100.00
64354;BME280;50681;53.334;-6.536;2023-08-17T12:08:07;101062.66;;;27.03;100.00
64354;BME280;50681;53.334;-6.536;2023-08-17T12:10:33;101070.59;;;27.08;100.00
64354;BME280;50681;53.334;-6.536;2023-08-17T12:12:59;101058.75;;;27.26;100.00
64354;BME280;50681;53.334;-6.536;2023-08-17T12:15:31;101060.31;;;27.20;100.00
64354;BME280;50681;53.334;-6.536;2023-08-17T12:18:00;101060.34;;;27.34;100.00
64354;BME280;50681;53.334;-6.536;2023-08-17T12:20:26;101068.28;;;27.39;100.00
64354;BME280;50681;53.334;-6.536;2023-08-17T12:22:51;101069.88;;;27.48;100.00
64354;BME280;50681;53.334;-6.536;2023-08-17T12:25:20;101063.63;;;27.80;100.00
64354;BME280;50681;53.334;-6.536;2023-08-17T12:27:47;101067.56;;;27.79;100.00
64354;BME280;50681;53.334;-6.536;2023-08-17T12:30:20;101065.59;;;27.76;100.00
64354;BME280;50681;53.334;-6.536;2023-08-17T12:32:48;101063.19;;;27.63;100.00
64354;BME280;50681;53.334;-6.536;2023-08-17T12:35:14;101058.06;;;27.69;100.00
64354;BME280;50681;53.334;-6.536;2023-08-17T12:37:39;101060.44;;;27.74;100.00
64354;BME280;50681;53.334;-6.536;2023-08-17T12:40:05;101062.41;;;27.73;100.00